sensor_id;sensor_type;location;lat;lon;timestamp;pressure;altitude;pressure_sealevel;temperature;humidity
9139;BME280;4604;48.616;9.548;2023-04-04T00:01:50;97637.28;;;1.53;49.05
9139;BME280;4604;48.616;9.548;2023-04-04T00:04:17;97647.22;;;1.43;49.06
9139;BME280;4604;48.616;9.548;2023-04-04T00:06:44;97619.53;;;1.22;48.91
9139;BME280;4604;48.616;9.548;2023-04-04T00:09:13;97636.81;;;1.43;48.70
9139;BME280;4604;48.616;9.548;2023-04-04T00:11:40;97636.78;;;1.24;48.95
9139;BME280;4604;48.616;9.548;2023-04-04T00:14:07;97634.81;;;1.30;48.85
9139;BME280;4604;48.616;9.548;2023-04-04T00:16:34;97598.72;;;1.22;49.32
9139;BME280;4604;48.616;9.548;2023-04-04T00:19:00;97607.72;;;1.15;49.17
9139;BME280;4604;48.616;9.548;2023-04-04T00:21:27;97617.53;;;1.08;49.90
9139;BME280;4604;48.616;9.548;2023-04-04T00:23:54;97617.47;;;1.30;49.75
9139;BME280;4604;48.616;9.548;2023-04-04T00:26:23;97617.53;;;1.28;49.77
9139;BME280;4604;48.616;9.548;2023-04-04T00:28:50;97617.16;;;1.17;49.69
9139;BME280;4604;48.616;9.548;2023-04-04T00:31:17;97614.69;;;1.35;49.51
9139;BME280;4604;48.616;9.548;2023-04-04T00:33:44;97614.34;;;1.42;50.00
9139;BME280;4604;48.616;9.548;2023-04-04T00:36:12;97614.13;;;1.26;50.56
9139;BME280;4604;48.616;9.548;2023-04-04T00:38:39;97609.59;;;1.32;49.91
9139;BME280;4604;48.616;9.548;2023-04-04T00:41:06;97617.28;;;1.35;50.10
9139;BME280;4604;48.616;9.548;2023-04-04T00:43:34;97610.03;;;1.00;51.17
9139;BME280;4604;48.616;9.548;2023-04-04T00:46:01;97613.66;;;0.96;51.31
9139;BME280;4604;48.616;9.548;2023-04-04T00:48:28;97605.22;;;1.12;51.31
9139;BME280;4604;48.616;9.548;2023-04-04T00:50:55;97592.81;;;1.18;51.06
9139;BME280;4604;48.616;9.548;2023-04-04T00:53:22;97591.59;;;1.27;51.01
9139;BME280;4604;48.616;9.548;2023-04-04T00:55:49;97591.72;;;1.03;51.11
9139;BME280;4604;48.616;9.548;2023-04-04T00:58:15;97590.09;;;1.01;51.38
9139;BME280;4604;48.616;9.548;2023-04-04T01:00:44;97594.31;;;0.83;51.82
9139;BME280;4604;48.616;9.548;2023-04-04T01:03:11;97593.84;;;0.94;52.10
9139;BME280;4604;48.616;9.548;2023-04-04T01:05:39;97592.03;;;0.96;52.75
9139;BME280;4604;48.616;9.548;2023-04-04T01:08:06;97590.88;;;1.03;51.97
9139;BME280;4604;48.616;9.548;2023-04-04T01:10:32;97595.78;;;0.89;52.55
9139;BME280;4604;48.616;9.548;2023-04-04T01:13:00;97588.84;;;0.89;51.99
9139;BME280;4604;48.616;9.548;2023-04-04T01:15:26;97585.97;;;0.75;53.10
9139;BME280;4604;48.616;9.548;2023-04-04T01:17:59;97592.19;;;0.93;52.42
9139;BME280;4604;48.616;9.548;2023-04-04T01:20:29;97586.97;;;0.93;52.44
9139;BME280;4604;48.616;9.548;2023-04-04T01:22:58;97583.78;;;0.86;52.73
9139;BME280;4604;48.616;9.548;2023-04-04T01:25:29;97581.59;;;0.75;52.49
9139;BME280;4604;48.616;9.548;2023-04-04T01:27:56;97576.69;;;0.90;52.95
9139;BME280;4604;48.616;9.548;2023-04-04T01:30:24;97568.41;;;0.59;53.37
9139;BME280;4604;48.616;9.548;2023-04-04T01:33:00;97572.81;;;0.57;53.30
9139;BME280;4604;48.616;9.548;2023-04-04T01:35:31;97571.53;;;0.68;52.55
9139;BME280;4604;48.616;9.548;2023-04-04T01:38:09;97579.75;;;0.79;52.51
9139;BME280;4604;48.616;9.548;2023-04-04T01:40:43;97568.44;;;0.80;52.75
9139;BME280;4604;48.616;9.548;2023-04-04T01:43:13;97572.31;;;0.70;52.81
9139;BME280;4604;48.616;9.548;2023-04-04T01:45:40;97562.91;;;0.67;53.04
9139;BME280;4604;48.616;9.548;2023-04-04T01:48:07;97568.13;;;0.66;52.92
9139;BME280;4604;48.616;9.548;2023-04-04T01:50:35;97564.56;;;0.68;53.51
9139;BME280;4604;48.616;9.548;2023-04-04T01:53:02;97557.72;;;0.88;52.48
9139;BME280;4604;48.616;9.548;2023-04-04T01:55:28;97578.72;;;0.61;53.28
9139;BME280;4604;48.616;9.548;2023-04-04T01:57:56;97564.53;;;0.90;52.93
9139;BME280;4604;48.616;9.548;2023-04-04T02:00:23;97565.34;;;0.70;53.66
9139;BME280;4604;48.616;9.548;2023-04-04T02:02:50;97566.63;;;0.82;53.43
9139;BME280;4604;48.616;9.548;2023-04-04T02:05:16;97575.84;;;0.89;52.93
9139;BME280;4604;48.616;9.548;2023-04-04T02:07:46;97584.88;;;0.58;53.82
9139;BME280;4604;48.616;9.548;2023-04-04T02:10:13;97578.22;;;0.51;55.00
9139;BME280;4604;48.616;9.548;2023-04-04T02:12:42;97575.66;;;0.73;54.33
9139;BME280;4604;48.616;9.548;2023-04-04T02:15:11;97585.66;;;0.38;54.97
9139;BME280;4604;48.616;9.548;2023-04-04T02:17:38;97585.28;;;0.49;55.37
9139;BME280;4604;48.616;9.548;2023-04-04T02:20:05;97573.53;;;0.39;55.66
9139;BME280;4604;48.616;9.548;2023-04-04T02:22:32;97586.22;;;0.69;54.67
9139;BME280;4604;48.616;9.548;2023-04-04T02:25:01;97564.03;;;0.82;54.40
9139;BME280;4604;48.616;9.548;2023-04-04T02:27:28;97576.56;;;0.50;55.17
9139;BME280;4604;48.616;9.548;2023-04-04T02:29:55;97571.50;;;0.47;56.28
9139;BME280;4604;48.616;9.548;2023-04-04T02:32:23;97563.34;;;0.34;56.22
9139;BME280;4604;48.616;9.548;2023-04-04T02:34:50;97561.16;;;0.46;55.98
9139;BME280;4604;48.616;9.548;2023-04-04T02:37:16;97559.47;;;0.45;55.86
9139;BME280;4604;48.616;9.548;2023-04-04T02:39:43;97576.50;;;0.30;56.52
9139;BME280;4604;48.616;9.548;2023-04-04T02:42:09;97572.63;;;0.40;56.41
9139;BME280;4604;48.616;9.548;2023-04-04T02:44:36;97564.53;;;0.48;56.16
9139;BME280;4604;48.616;9.548;2023-04-04T02:47:04;97574.00;;;0.27;57.00
9139;BME280;4604;48.616;9.548;2023-04-04T02:49:32;97578.50;;;0.23;57.33
9139;BME280;4604;48.616;9.548;2023-04-04T02:52:00;97569.13;;;0.19;57.72
9139;BME280;4604;48.616;9.548;2023-04-04T02:54:26;97561.94;;;0.26;57.73
9139;BME280;4604;48.616;9.548;2023-04-04T02:56:53;97568.47;;;0.36;57.13
9139;BME280;4604;48.616;9.548;2023-04-04T02:59:20;97565.81;;;0.37;57.61
9139;BME280;4604;48.616;9.548;2023-04-04T03:01:46;97569.00;;;0.66;56.99
9139;BME280;4604;48.616;9.548;2023-04-04T03:04:13;97568.94;;;0.46;57.02
9139;BME280;4604;48.616;9.548;2023-04-04T03:06:41;97567.13;;;0.26;58.54
9139;BME280;4604;48.616;9.548;2023-04-04T03:09:08;97572.34;;;0.26;57.81
9139;BME280;4604;48.616;9.548;2023-04-04T03:11:34;97571.41;;;0.27;57.65
9139;BME280;4604;48.616;9.548;2023-04-04T03:14:01;97569.06;;;-0.02;59.64
9139;BME280;4604;48.616;9.548;2023-04-04T03:16:28;97564.53;;;0.04;59.63
9139;BME280;4604;48.616;9.548;2023-04-04T03:18:55;97564.56;;;0.02;59.70
9139;BME280;4604;48.616;9.548;2023-04-04T03:21:22;97561.78;;;-0.15;59.95
9139;BME280;4604;48.616;9.548;2023-04-04T03:23:50;97566.75;;;-0.33;60.95
9139;BME280;4604;48.616;9.548;2023-04-04T03:26:16;97566.34;;;-0.22;60.75
9139;BME280;4604;48.616;9.548;2023-04-04T03:28:43;97562.53;;;-0.35;61.28
9139;BME280;4604;48.616;9.548;2023-04-04T03:31:10;97561.72;;;-0.37;61.54
9139;BME280;4604;48.616;9.548;2023-04-04T03:33:37;97564.41;;;-0.39;61.92
9139;BME280;4604;48.616;9.548;2023-04-04T03:36:08;97567.66;;;-0.34;61.42
9139;BME280;4604;48.616;9.548;2023-04-04T03:38:36;97563.88;;;-0.25;61.53
9139;BME280;4604;48.616;9.548;2023-04-04T03:41:04;97557.56;;;-0.18;61.05
9139;BME280;4604;48.616;9.548;2023-04-04T03:43:31;97555.53;;;-0.10;60.37
9139;BME280;4604;48.616;9.548;2023-04-04T03:46:01;97563.53;;;-0.16;60.77
9139;BME280;4604;48.616;9.548;2023-04-04T03:48:28;97559.50;;;-0.01;60.85
9139;BME280;4604;48.616;9.548;2023-04-04T03:50:55;97559.75;;;-0.07;61.01
9139;BME280;4604;48.616;9.548;2023-04-04T03:53:23;97560.59;;;-0.07;61.28
9139;BME280;4604;48.616;9.548;2023-04-04T03:55:50;97554.75;;;-0.12;61.77
9139;BME280;4604;48.616;9.548;2023-04-04T03:58:20;97557.13;;;-0.29;62.02
9139;BME280;4604;48.616;9.548;2023-04-04T04:00:47;97557.00;;;-0.26;62.34
9139;BME280;4604;48.616;9.548;2023-04-04T04:03:14;97553.38;;;-0.22;61.26
9139;BME280;4604;48.616;9.548;2023-04-04T04:05:41;97564.78;;;-0.26;61.44
9139;BME280;4604;48.616;9.548;2023-04-04T04:08:07;97563.44;;;-0.36;62.11
9139;BME280;4604;48.616;9.548;2023-04-04T04:10:34;97560.78;;;-0.35;61.68
9139;BME280;4604;48.616;9.548;2023-04-04T04:13:00;97560.78;;;-0.35;61.62
9139;BME280;4604;48.616;9.548;2023-04-04T04:15:29;97560.78;;;-0.35;62.02
9139;BME280;4604;48.616;9.548;2023-04-04T04:17:55;97558.84;;;-0.30;61.32
9139;BME280;4604;48.616;9.548;2023-04-04T04:20:22;97562.47;;;-0.34;61.22
9139;BME280;4604;48.616;9.548;2023-04-04T04:22:48;97555.41;;;-0.54;62.09
9139;BME280;4604;48.616;9.548;2023-04-04T04:25:15;97563.25;;;-0.32;61.90
9139;BME280;4604;48.616;9.548;2023-04-04T04:27:42;97566.13;;;-0.39;61.33
9139;BME280;4604;48.616;9.548;2023-04-04T04:30:10;97564.72;;;-0.48;61.29
9139;BME280;4604;48.616;9.548;2023-04-04T04:32:39;97569.69;;;-0.42;61.66
9139;BME280;4604;48.616;9.548;2023-04-04T04:35:07;97567.84;;;-0.63;62.41
9139;BME280;4604;48.616;9.548;2023-04-04T04:37:34;97568.75;;;-0.65;62.48
9139;BME280;4604;48.616;9.548;2023-04-04T04:40:00;97553.59;;;-0.75;62.87
9139;BME280;4604;48.616;9.548;2023-04-04T04:42:27;97559.81;;;-0.56;62.71
9139;BME280;4604;48.616;9.548;2023-04-04T04:44:54;97561.63;;;-0.58;62.38
9139;BME280;4604;48.616;9.548;2023-04-04T04:47:21;97564.84;;;-0.51;61.85
9139;BME280;4604;48.616;9.548;2023-04-04T04:49:49;97569.84;;;-0.70;62.51
9139;BME280;4604;48.616;9.548;2023-04-04T04:52:16;97572.94;;;-0.86;63.27
9139;BME280;4604;48.616;9.548;2023-04-04T04:54:43;97562.50;;;-0.59;61.92
9139;BME280;4604;48.616;9.548;2023-04-04T04:57:10;97566.34;;;-0.46;61.11
9139;BME280;4604;48.616;9.548;2023-04-04T04:59:36;97568.88;;;-0.44;60.76
9139;BME280;4604;48.616;9.548;2023-04-04T05:02:05;97560.66;;;-0.55;60.82
9139;BME280;4604;48.616;9.548;2023-04-04T05:04:32;97570.34;;;-0.60;61.17
9139;BME280;4604;48.616;9.548;2023-04-04T05:07:00;97576.25;;;-0.57;61.78
9139;BME280;4604;48.616;9.548;2023-04-04T05:09:26;97571.81;;;-0.53;61.14
9139;BME280;4604;48.616;9.548;2023-04-04T05:11:53;97570.28;;;-0.59;61.59
9139;BME280;4604;48.616;9.548;2023-04-04T05:14:20;97569.06;;;-0.49;61.73
9139;BME280;4604;48.616;9.548;2023-04-04T05:16:46;97570.78;;;-0.49;60.75
9139;BME280;4604;48.616;9.548;2023-04-04T05:19:13;97579.19;;;-0.43;60.57
9139;BME280;4604;48.616;9.548;2023-04-04T05:21:40;97580.44;;;-0.53;60.90
9139;BME280;4604;48.616;9.548;2023-04-04T05:24:08;97580.88;;;-0.41;60.79
9139;BME280;4604;48.616;9.548;2023-04-04T05:26:35;97571.19;;;-0.60;61.80
9139;BME280;4604;48.616;9.548;2023-04-04T05:29:02;97581.69;;;-0.63;62.52
9139;BME280;4604;48.616;9.548;2023-04-04T05:31:28;97580.66;;;-0.59;61.16
9139;BME280;4604;48.616;9.548;2023-04-04T05:33:55;97581.13;;;-0.48;60.24
9139;BME280;4604;48.616;9.548;2023-04-04T05:36:22;97583.03;;;-0.53;61.23
9139;BME280;4604;48.616;9.548;2023-04-04T05:38:48;97584.22;;;-0.38;60.34
9139;BME280;4604;48.616;9.548;2023-04-04T05:41:17;97589.38;;;-0.61;61.35
9139;BME280;4604;48.616;9.548;2023-04-04T05:43:43;97593.56;;;-0.57;61.51
9139;BME280;4604;48.616;9.548;2023-04-04T05:46:10;97589.97;;;-0.30;59.77
9139;BME280;4604;48.616;9.548;2023-04-04T05:48:36;97591.50;;;-0.24;59.33
9139;BME280;4604;48.616;9.548;2023-04-04T05:51:03;97589.28;;;-0.35;60.57
9139;BME280;4604;48.616;9.548;2023-04-04T05:53:30;97592.53;;;-0.28;59.32
9139;BME280;4604;48.616;9.548;2023-04-04T05:55:59;97577.78;;;-0.28;60.27
9139;BME280;4604;48.616;9.548;2023-04-04T05:58:28;97587.63;;;-0.36;60.98
9139;BME280;4604;48.616;9.548;2023-04-04T06:00:54;97589.63;;;-0.20;60.18
9139;BME280;4604;48.616;9.548;2023-04-04T06:03:21;97576.00;;;-0.02;59.92
9139;BME280;4604;48.616;9.548;2023-04-04T06:05:49;97581.22;;;-0.04;59.54
9139;BME280;4604;48.616;9.548;2023-04-04T06:08:17;97585.50;;;-0.03;59.46
9139;BME280;4604;48.616;9.548;2023-04-04T06:10:44;97591.66;;;0.40;56.89
9139;BME280;4604;48.616;9.548;2023-04-04T06:13:10;97589.09;;;0.39;57.51
9139;BME280;4604;48.616;9.548;2023-04-04T06:15:38;97582.34;;;0.57;57.62
9139;BME280;4604;48.616;9.548;2023-04-04T06:18:05;97585.63;;;0.40;57.77
9139;BME280;4604;48.616;9.548;2023-04-04T06:20:31;97583.63;;;0.69;57.79
9139;BME280;4604;48.616;9.548;2023-04-04T06:22:58;97588.41;;;0.78;55.69
9139;BME280;4604;48.616;9.548;2023-04-04T06:25:28;97580.06;;;0.71;56.02
9139;BME280;4604;48.616;9.548;2023-04-04T06:27:55;97583.03;;;0.82;55.02
9139;BME280;4604;48.616;9.548;2023-04-04T06:30:23;97583.44;;;0.73;55.39
9139;BME280;4604;48.616;9.548;2023-04-04T06:32:51;97579.75;;;0.99;54.65
9139;BME280;4604;48.616;9.548;2023-04-04T06:35:18;97585.59;;;1.04;55.30
9139;BME280;4604;48.616;9.548;2023-04-04T06:37:45;97577.88;;;1.23;53.96
9139;BME280;4604;48.616;9.548;2023-04-04T06:40:12;97576.81;;;1.07;56.15
9139;BME280;4604;48.616;9.548;2023-04-04T06:42:38;97578.38;;;1.32;55.23
9139;BME280;4604;48.616;9.548;2023-04-04T06:45:06;97578.31;;;1.33;54.30
9139;BME280;4604;48.616;9.548;2023-04-04T06:47:33;97577.53;;;1.31;55.65
9139;BME280;4604;48.616;9.548;2023-04-04T06:50:01;97578.28;;;1.35;56.37
9139;BME280;4604;48.616;9.548;2023-04-04T06:52:28;97574.41;;;1.64;53.22
9139;BME280;4604;48.616;9.548;2023-04-04T06:54:55;97578.09;;;1.58;53.45
9139;BME280;4604;48.616;9.548;2023-04-04T06:57:22;97567.69;;;1.58;53.30
9139;BME280;4604;48.616;9.548;2023-04-04T06:59:48;97576.34;;;1.78;52.30
9139;BME280;4604;48.616;9.548;2023-04-04T07:02:15;97576.09;;;1.84;51.48
9139;BME280;4604;48.616;9.548;2023-04-04T07:04:42;97578.19;;;1.95;51.32
9139;BME280;4604;48.616;9.548;2023-04-04T07:07:10;97576.44;;;2.14;50.88
9139;BME280;4604;48.616;9.548;2023-04-04T07:09:36;97576.75;;;2.08;51.69
9139;BME280;4604;48.616;9.548;2023-04-04T07:12:03;97581.69;;;2.31;50.59
9139;BME280;4604;48.616;9.548;2023-04-04T07:14:30;97582.63;;;2.30;51.37
9139;BME280;4604;48.616;9.548;2023-04-04T07:16:57;97575.84;;;2.45;49.51
9139;BME280;4604;48.616;9.548;2023-04-04T07:19:24;97572.97;;;2.51;49.30
9139;BME280;4604;48.616;9.548;2023-04-04T07:21:53;97580.63;;;2.54;49.49
9139;BME280;4604;48.616;9.548;2023-04-04T07:24:21;97582.00;;;2.44;50.22
9139;BME280;4604;48.616;9.548;2023-04-04T07:26:48;97577.72;;;2.61;50.25
9139;BME280;4604;48.616;9.548;2023-04-04T07:29:14;97576.84;;;2.79;49.50
9139;BME280;4604;48.616;9.548;2023-04-04T07:31:41;97576.09;;;2.58;50.01
9139;BME280;4604;48.616;9.548;2023-04-04T07:34:08;97581.72;;;2.68;49.54
9139;BME280;4604;48.616;9.548;2023-04-04T07:36:34;97570.63;;;2.82;49.95
9139;BME280;4604;48.616;9.548;2023-04-04T07:39:01;97576.63;;;2.84;49.11
9139;BME280;4604;48.616;9.548;2023-04-04T07:41:29;97573.06;;;2.85;50.20
9139;BME280;4604;48.616;9.548;2023-04-04T07:43:56;97579.38;;;2.98;49.81
9139;BME280;4604;48.616;9.548;2023-04-04T07:46:22;97574.84;;;3.19;48.88
9139;BME280;4604;48.616;9.548;2023-04-04T07:48:49;97577.56;;;3.51;50.27
9139;BME280;4604;48.616;9.548;2023-04-04T07:51:15;97581.03;;;3.34;48.13
9139;BME280;4604;48.616;9.548;2023-04-04T07:53:43;97588.75;;;3.37;49.08
9139;BME280;4604;48.616;9.548;2023-04-04T07:56:09;97594.63;;;3.40;47.89
9139;BME280;4604;48.616;9.548;2023-04-04T07:58:37;97581.22;;;3.31;48.20
9139;BME280;4604;48.616;9.548;2023-04-04T08:01:04;97581.53;;;3.42;48.90
9139;BME280;4604;48.616;9.548;2023-04-04T08:03:31;97586.22;;;3.69;48.80
9139;BME280;4604;48.616;9.548;2023-04-04T08:05:58;97579.59;;;3.79;48.78
9139;BME280;4604;48.616;9.548;2023-04-04T08:08:24;97583.28;;;3.75;47.83
9139;BME280;4604;48.616;9.548;2023-04-04T08:10:51;97569.31;;;3.76;47.28
9139;BME280;4604;48.616;9.548;2023-04-04T08:13:18;97584.16;;;3.91;48.56
9139;BME280;4604;48.616;9.548;2023-04-04T08:15:46;97590.66;;;4.00;47.62
9139;BME280;4604;48.616;9.548;2023-04-04T08:18:12;97584.63;;;4.15;47.35
9139;BME280;4604;48.616;9.548;2023-04-04T08:20:39;97577.78;;;4.28;46.26
9139;BME280;4604;48.616;9.548;2023-04-04T08:23:06;97584.13;;;4.40;46.37
9139;BME280;4604;48.616;9.548;2023-04-04T08:25:33;97579.13;;;4.36;46.89
9139;BME280;4604;48.616;9.548;2023-04-04T08:28:00;97576.59;;;4.50;48.04
9139;BME280;4604;48.616;9.548;2023-04-04T08:30:28;97576.00;;;4.77;46.40
9139;BME280;4604;48.616;9.548;2023-04-04T08:32:56;97584.53;;;5.10;46.29
9139;BME280;4604;48.616;9.548;2023-04-04T08:35:23;97578.75;;;4.89;45.29
9139;BME280;4604;48.616;9.548;2023-04-04T08:37:49;97578.09;;;4.70;45.35
9139;BME280;4604;48.616;9.548;2023-04-04T08:40:16;97586.19;;;4.65;45.48
9139;BME280;4604;48.616;9.548;2023-04-04T08:42:43;97584.09;;;4.72;45.86
9139;BME280;4604;48.616;9.548;2023-04-04T08:45:11;97582.31;;;4.72;46.47
9139;BME280;4604;48.616;9.548;2023-04-04T08:47:39;97576.25;;;5.02;43.42
9139;BME280;4604;48.616;9.548;2023-04-04T08:50:08;97582.97;;;5.22;44.97
9139;BME280;4604;48.616;9.548;2023-04-04T08:52:35;97582.91;;;5.38;44.61
9139;BME280;4604;48.616;9.548;2023-04-04T08:55:04;97567.97;;;5.54;43.97
9139;BME280;4604;48.616;9.548;2023-04-04T08:57:31;97560.09;;;5.54;44.12
9139;BME280;4604;48.616;9.548;2023-04-04T08:59:57;97570.28;;;5.45;44.69
9139;BME280;4604;48.616;9.548;2023-04-04T09:02:28;97577.69;;;5.67;43.53
9139;BME280;4604;48.616;9.548;2023-04-04T09:04:56;97581.91;;;5.84;42.71
9139;BME280;4604;48.616;9.548;2023-04-04T09:07:26;97571.50;;;5.68;42.80
9139;BME280;4604;48.616;9.548;2023-04-04T09:09:54;97569.19;;;5.77;43.20
9139;BME280;4604;48.616;9.548;2023-04-04T09:12:22;97583.19;;;5.48;42.56
9139;BME280;4604;48.616;9.548;2023-04-04T09:14:50;97571.06;;;5.61;41.41
9139;BME280;4604;48.616;9.548;2023-04-04T09:17:17;97580.69;;;5.75;42.29
9139;BME280;4604;48.616;9.548;2023-04-04T09:19:44;97584.16;;;5.90;42.97
9139;BME280;4604;48.616;9.548;2023-04-04T09:22:11;97571.19;;;6.17;42.29
9139;BME280;4604;48.616;9.548;2023-04-04T09:24:40;97574.09;;;6.54;42.87
9139;BME280;4604;48.616;9.548;2023-04-04T09:27:07;97572.88;;;6.45;40.97
9139;BME280;4604;48.616;9.548;2023-04-04T09:29:36;97581.25;;;6.64;42.45
9139;BME280;4604;48.616;9.548;2023-04-04T09:32:03;97577.31;;;6.72;41.67
9139;BME280;4604;48.616;9.548;2023-04-04T09:34:32;97578.13;;;6.72;40.92
9139;BME280;4604;48.616;9.548;2023-04-04T09:36:59;97584.47;;;6.82;41.91
9139;BME280;4604;48.616;9.548;2023-04-04T09:39:26;97581.81;;;6.70;41.80
9139;BME280;4604;48.616;9.548;2023-04-04T09:41:54;97582.72;;;6.83;41.02
9139;BME280;4604;48.616;9.548;2023-04-04T09:44:23;97581.38;;;6.90;40.13
9139;BME280;4604;48.616;9.548;2023-04-04T09:46:50;97580.78;;;6.85;40.54
9139;BME280;4604;48.616;9.548;2023-04-04T09:49:18;97572.69;;;7.02;42.01
9139;BME280;4604;48.616;9.548;2023-04-04T09:51:47;97571.88;;;6.88;41.38
9139;BME280;4604;48.616;9.548;2023-04-04T09:54:19;97581.94;;;7.08;41.56
9139;BME280;4604;48.616;9.548;2023-04-04T09:56:46;97572.63;;;6.90;39.70
9139;BME280;4604;48.616;9.548;2023-04-04T09:59:15;97579.56;;;6.91;40.39
9139;BME280;4604;48.616;9.548;2023-04-04T10:01:43;97583.34;;;6.86;39.48
9139;BME280;4604;48.616;9.548;2023-04-04T10:04:12;97584.13;;;6.47;43.19
9139;BME280;4604;48.616;9.548;2023-04-04T10:06:42;97579.03;;;6.58;40.52
9139;BME280;4604;48.616;9.548;2023-04-04T10:09:09;97576.50;;;6.57;41.79
9139;BME280;4604;48.616;9.548;2023-04-04T10:11:35;97585.50;;;6.53;40.73
9139;BME280;4604;48.616;9.548;2023-04-04T10:14:03;97586.00;;;6.45;41.09
9139;BME280;4604;48.616;9.548;2023-04-04T10:16:33;97584.50;;;6.27;40.80
9139;BME280;4604;48.616;9.548;2023-04-04T10:19:03;97577.53;;;6.13;41.07
9139;BME280;4604;48.616;9.548;2023-04-04T10:21:31;97567.19;;;6.24;40.92
9139;BME280;4604;48.616;9.548;2023-04-04T10:23:59;97564.84;;;6.34;40.10
9139;BME280;4604;48.616;9.548;2023-04-04T10:26:27;97576.06;;;6.36;40.46
9139;BME280;4604;48.616;9.548;2023-04-04T10:28:54;97564.72;;;6.08;40.67
9139;BME280;4604;48.616;9.548;2023-04-04T10:31:22;97565.44;;;6.25;40.01
9139;BME280;4604;48.616;9.548;2023-04-04T10:34:03;97565.44;;;6.25;41.99
9139;BME280;4604;48.616;9.548;2023-04-04T10:36:37;97563.53;;;6.27;41.05
9139;BME280;4604;48.616;9.548;2023-04-04T10:39:12;97569.00;;;6.51;41.75
9139;BME280;4604;48.616;9.548;2023-04-04T10:41:39;97566.84;;;6.57;40.89
9139;BME280;4604;48.616;9.548;2023-04-04T10:44:12;97566.78;;;6.99;40.37
9139;BME280;4604;48.616;9.548;2023-04-04T10:46:41;97567.81;;;6.83;42.66
9139;BME280;4604;48.616;9.548;2023-04-04T10:49:10;97555.25;;;7.01;41.32
9139;BME280;4604;48.616;9.548;2023-04-04T10:51:37;97558.13;;;7.24;41.13
9139;BME280;4604;48.616;9.548;2023-04-04T10:54:04;97553.59;;;7.26;42.04
9139;BME280;4604;48.616;9.548;2023-04-04T10:56:32;97561.28;;;7.29;43.01
9139;BME280;4604;48.616;9.548;2023-04-04T10:59:11;97559.91;;;7.36;40.58
9139;BME280;4604;48.616;9.548;2023-04-04T11:01:53;97560.44;;;7.28;40.98
9139;BME280;4604;48.616;9.548;2023-04-04T11:04:29;97542.00;;;6.90;39.90
9139;BME280;4604;48.616;9.548;2023-04-04T11:07:09;97546.97;;;7.07;41.76
9139;BME280;4604;48.616;9.548;2023-04-04T11:09:47;97545.41;;;7.18;40.81
9139;BME280;4604;48.616;9.548;2023-04-04T11:12:14;97532.28;;;7.31;39.55
9139;BME280;4604;48.616;9.548;2023-04-04T11:14:54;97544.38;;;7.20;40.66
9139;BME280;4604;48.616;9.548;2023-04-04T11:17:39;97542.56;;;7.21;40.79
9139;BME280;4604;48.616;9.548;2023-04-04T11:20:08;97531.25;;;7.46;40.80
9139;BME280;4604;48.616;9.548;2023-04-04T11:22:35;97528.63;;;7.59;39.07
9139;BME280;4604;48.616;9.548;2023-04-04T11:25:27;97537.56;;;7.56;38.38
9139;BME280;4604;48.616;9.548;2023-04-04T11:27:55;97525.16;;;7.33;39.90
9139;BME280;4604;48.616;9.548;2023-04-04T11:30:22;97526.81;;;7.34;37.96
9139;BME280;4604;48.616;9.548;2023-04-04T11:32:49;97530.59;;;7.17;39.22
9139;BME280;4604;48.616;9.548;2023-04-04T11:35:17;97542.13;;;7.14;40.41
9139;BME280;4604;48.616;9.548;2023-04-04T11:37:57;97525.91;;;7.47;38.09
9139;BME280;4604;48.616;9.548;2023-04-04T11:40:36;97533.38;;;7.54;39.63
9139;BME280;4604;48.616;9.548;2023-04-04T11:43:06;97535.34;;;7.63;40.14
9139;BME280;4604;48.616;9.548;2023-04-04T11:45:34;97523.97;;;7.75;38.25
9139;BME280;4604;48.616;9.548;2023-04-04T11:48:02;97527.66;;;7.85;39.13
9139;BME280;4604;48.616;9.548;2023-04-04T11:50:35;97534.50;;;7.75;38.27
9139;BME280;4604;48.616;9.548;2023-04-04T11:53:08;97527.78;;;7.58;37.75
9139;BME280;4604;48.616;9.548;2023-04-04T11:55:38;97513.81;;;7.32;39.03
9139;BME280;4604;48.616;9.548;2023-04-04T11:58:10;97517.91;;;7.36;38.47
9139;BME280;4604;48.616;9.548;2023-04-04T12:00:38;97521.91;;;7.42;38.40
9139;BME280;4604;48.616;9.548;2023-04-04T12:03:06;97524.44;;;7.56;38.60
9139;BME280;4604;48.616;9.548;2023-04-04T12:05:36;97521.16;;;7.78;38.19
9139;BME280;4604;48.616;9.548;2023-04-04T12:08:05;97509.72;;;7.66;38.68
9139;BME280;4604;48.616;9.548;2023-04-04T12:10:33;97511.06;;;7.72;38.05
9139;BME280;4604;48.616;9.548;2023-04-04T12:13:01;97511.38;;;7.67;39.05
9139;BME280;4604;48.616;9.548;2023-04-04T12:15:28;97512.84;;;7.84;37.51
9139;BME280;4604;48.616;9.548;2023-04-04T12:17:57;97505.38;;;7.91;37.24
9139;BME280;4604;48.616;9.548;2023-04-04T12:20:24;97516.34;;;7.46;36.93
9139;BME280;4604;48.616;9.548;2023-04-04T12:22:52;97502.56;;;7.68;37.91
9139;BME280;4604;48.616;9.548;2023-04-04T12:25:21;97498.44;;;7.77;38.15
9139;BME280;4604;48.616;9.548;2023-04-04T12:27:48;97499.47;;;7.87;36.75
9139;BME280;4604;48.616;9.548;2023-04-04T12:30:17;97503.72;;;7.64;36.52
9139;BME280;4604;48.616;9.548;2023-04-04T12:32:45;97500.25;;;7.38;38.47
9139;BME280;4604;48.616;9.548;2023-04-04T12:35:12;97500.56;;;7.34;37.30
9139;BME280;4604;48.616;9.548;2023-04-04T12:37:58;97494.59;;;7.44;37.95
9139;BME280;4604;48.616;9.548;2023-04-04T12:40:30;97492.41;;;7.51;38.54
9139;BME280;4604;48.616;9.548;2023-04-04T12:42:58;97498.25;;;7.67;38.33
9139;BME280;4604;48.616;9.548;2023-04-04T12:45:25;97497.84;;;7.74;38.01
9139;BME280;4604;48.616;9.548;2023-04-04T12:47:53;97487.63;;;7.82;37.49
9139;BME280;4604;48.616;9.548;2023-04-04T12:50:22;97486.75;;;7.94;37.08
9139;BME280;4604;48.616;9.548;2023-04-04T12:52:51;97479.84;;;8.17;38.85
9139;BME280;4604;48.616;9.548;2023-04-04T12:55:21;97489.31;;;8.07;37.42
9139;BME280;4604;48.616;9.548;2023-04-04T12:57:48;97479.63;;;8.20;37.22
9139;BME280;4604;48.616;9.548;2023-04-04T13:00:16;97476.53;;;8.26;38.56
9139;BME280;4604;48.616;9.548;2023-04-04T13:02:45;97475.91;;;8.60;38.51
9139;BME280;4604;48.616;9.548;2023-04-04T13:05:14;97471.47;;;8.60;37.83
9139;BME280;4604;48.616;9.548;2023-04-04T13:07:42;97471.66;;;8.46;37.03
9139;BME280;4604;48.616;9.548;2023-04-04T13:10:10;97472.34;;;8.24;36.93
9139;BME280;4604;48.616;9.548;2023-04-04T13:12:56;97472.16;;;8.14;37.39
9139;BME280;4604;48.616;9.548;2023-04-04T13:15:46;97464.00;;;8.43;37.64
9139;BME280;4604;48.616;9.548;2023-04-04T13:18:14;97459.38;;;8.46;37.38
9139;BME280;4604;48.616;9.548;2023-04-04T13:20:41;97464.72;;;8.45;39.59
9139;BME280;4604;48.616;9.548;2023-04-04T13:23:09;97461.88;;;8.48;37.15
9139;BME280;4604;48.616;9.548;2023-04-04T13:25:36;97461.47;;;8.41;37.56
9139;BME280;4604;48.616;9.548;2023-04-04T13:28:04;97455.28;;;8.42;40.03
9139;BME280;4604;48.616;9.548;2023-04-04T13:30:31;97452.69;;;8.53;37.71
9139;BME280;4604;48.616;9.548;2023-04-04T13:32:57;97452.84;;;8.39;37.92
9139;BME280;4604;48.616;9.548;2023-04-04T13:35:25;97445.63;;;8.30;37.78